EGHH

Bournemouth Airport

Bournemouth, United Kingdom
METAR EGHH 251450Z 17007KT 120V210 9999 FEW036 16/07 Q1036
Observed Flight Rules
Sep-25 @ 14:50 UTC (41 minutes ago) Visual Flight Rules
Wind Visibility Clouds
170° at 7 knots 10,000+ meters
  • Few at 3,600' AGL
Temperatures Readings
Current 16°C / 61°F
Dewpoint 7°C / 45°F
Humidity 55%
Altimeter 30.59" Hg
Pressure 1036 hPa
Elevation 11
METAR EGHH 251450Z 17007KT 120V210 9999 FEW036 16/07 Q1036
Observed Flight Rules
Sep-25 @ 14:50 UTC
(41 minutes ago)
VFR
Wind Visibility
170° at 7 knots 10,000+ meters
Clouds
  • Few at 3,600' AGL
Temperature Dewpoint
16°C / 61°F 7°C / 45°F
Humidity Altimeter Pressure
55% 30.59" Hg 1036 hPa